createdAt,value
2024-04-07T00:00:52.686Z,98203.42
2024-04-07T00:03:41.135Z,98200.35
2024-04-07T00:06:09.186Z,98197.21
2024-04-07T00:08:36.771Z,98196.92
2024-04-07T00:11:04.521Z,98199.44
2024-04-07T00:13:32.206Z,98201.37
2024-04-07T00:16:01.319Z,98200.63
2024-04-07T00:18:29.366Z,98208.63
2024-04-07T00:21:03.821Z,98201.69
2024-04-07T00:23:31.920Z,98198.59
2024-04-07T00:26:00.173Z,98199.98
2024-04-07T00:28:27.998Z,98194.53
2024-04-07T00:30:55.846Z,98192.19
2024-04-07T00:33:23.819Z,98198.16
2024-04-07T00:35:55.812Z,98190.58
2024-04-07T00:38:23.633Z,98198.73
2024-04-07T00:40:58.196Z,98196.66
2024-04-07T00:43:27.598Z,98198.84
2024-04-07T00:45:56.952Z,98192.33
2024-04-07T00:48:26.124Z,98201.56
2024-04-07T00:50:55.772Z,98199.88
2024-04-07T00:53:23.652Z,98196.40
2024-04-07T00:55:51.250Z,98192.29
2024-04-07T00:58:20.139Z,98190.54
2024-04-07T01:00:47.940Z,98195.61
2024-04-07T01:03:16.897Z,98197.76
2024-04-07T01:05:48.350Z,98207.73
2024-04-07T01:08:17.805Z,98212.48
2024-04-07T01:10:52.759Z,98212.52
2024-04-07T01:13:25.745Z,98218.77
2024-04-07T01:16:45.010Z,98220.65
2024-04-07T01:19:12.618Z,98219.09
2024-04-07T01:21:40.270Z,98216.16
2024-04-07T01:24:07.901Z,98213.45
2024-04-07T01:26:35.493Z,98208.98
2024-04-07T01:29:03.221Z,98207.73
2024-04-07T01:31:32.701Z,98202.50
2024-04-07T01:34:00.251Z,98201.05
2024-04-07T01:36:27.856Z,98201.86
2024-04-07T01:38:55.677Z,98200.36
2024-04-07T01:41:23.473Z,98200.00
2024-04-07T01:43:51.025Z,98200.11
2024-04-07T01:46:18.684Z,98202.64
2024-04-07T01:48:48.638Z,98204.80
2024-04-07T01:51:16.573Z,98212.28
2024-04-07T01:53:44.157Z,98211.70
2024-04-07T01:56:11.895Z,98214.52
2024-04-07T01:58:39.470Z,98215.68
2024-04-07T02:01:07.138Z,98212.89
2024-04-07T02:03:34.742Z,98211.04
2024-04-07T02:06:02.332Z,98211.65
2024-04-07T02:08:30.044Z,98213.02
2024-04-07T02:10:57.921Z,98210.55
2024-04-07T02:13:25.527Z,98212.35
2024-04-07T02:15:55.507Z,98210.27
2024-04-07T02:18:23.277Z,98208.88
2024-04-07T02:20:52.509Z,98207.49
2024-04-07T02:23:20.532Z,98205.39
2024-04-07T02:25:48.440Z,98200.73
2024-04-07T02:28:17.159Z,98198.40
2024-04-07T02:30:45.030Z,98202.80
2024-04-07T02:33:13.845Z,98206.77
2024-04-07T02:35:41.997Z,98206.34
2024-04-07T02:38:11.614Z,98204.17
2024-04-07T02:40:40.275Z,98206.89
2024-04-07T02:43:07.951Z,98207.36
2024-04-07T02:45:54.537Z,98204.92
2024-04-07T02:48:22.191Z,98205.17
2024-04-07T02:50:49.733Z,98205.94
2024-04-07T02:53:17.385Z,98210.17
2024-04-07T02:55:45.623Z,98210.64
2024-04-07T02:58:13.217Z,98211.70
2024-04-07T03:00:40.809Z,98210.73
2024-04-07T03:03:08.749Z,98206.42
2024-04-07T03:05:42.387Z,98205.17
2024-04-07T03:08:16.121Z,98206.11
2024-04-07T03:10:44.389Z,98209.38
2024-04-07T03:13:11.995Z,98211.16
2024-04-07T03:15:39.591Z,98214.23
2024-04-07T03:18:08.111Z,98218.61
2024-04-07T03:20:35.824Z,98214.34
2024-04-07T03:23:03.735Z,98209.19
2024-04-07T03:25:31.394Z,98200.48
2024-04-07T03:27:59.105Z,98201.86
2024-04-07T03:30:27.482Z,98207.34
2024-04-07T03:32:55.095Z,98211.34
2024-04-07T03:35:22.757Z,98206.23
2024-04-07T03:37:51.440Z,98208.71
2024-04-07T03:40:19.287Z,98206.30
2024-04-07T03:42:46.950Z,98208.49
2024-04-07T03:45:14.600Z,98206.58
2024-04-07T03:47:42.489Z,98205.77
2024-04-07T03:50:10.705Z,98196.79
2024-04-07T03:52:38.279Z,98191.64
2024-04-07T03:55:06.026Z,98196.58
2024-04-07T03:57:34.054Z,98197.33
2024-04-07T04:00:01.861Z,98194.51
2024-04-07T04:02:40.698Z,98195.64
2024-04-07T04:05:08.801Z,98196.27
2024-04-07T04:07:36.795Z,98196.40
2024-04-07T04:10:04.758Z,98195.38
2024-04-07T04:12:32.998Z,98197.35
2024-04-07T04:15:01.710Z,98201.89
2024-04-07T04:17:29.986Z,98203.81
2024-04-07T04:19:57.566Z,98199.59
2024-04-07T04:22:25.237Z,98196.99
2024-04-07T04:24:52.841Z,98195.88
2024-04-07T04:27:20.409Z,98198.30
2024-04-07T04:29:48.257Z,98201.45
2024-04-07T04:32:15.924Z,98198.98
2024-04-07T04:34:43.553Z,98196.86
2024-04-07T04:37:11.240Z,98205.94
2024-04-07T04:39:38.882Z,98205.73
2024-04-07T04:42:07.319Z,98209.26
2024-04-07T04:44:35.647Z,98211.89
2024-04-07T04:47:03.923Z,98213.17
2024-04-07T04:49:31.827Z,98214.08
2024-04-07T04:52:00.497Z,98212.92
2024-04-07T04:54:28.184Z,98204.87
2024-04-07T04:56:55.770Z,98199.88
2024-04-07T04:59:23.380Z,98194.98
2024-04-07T05:01:51.493Z,98198.53
2024-04-07T05:04:19.493Z,98199.20
2024-04-07T05:06:47.086Z,98203.23
2024-04-07T05:09:15.403Z,98200.61
2024-04-07T05:11:43.179Z,98204.50
2024-04-07T05:14:10.886Z,98204.30
2024-04-07T05:16:38.755Z,98201.42
2024-04-07T05:19:07.100Z,98199.78
2024-04-07T05:21:34.681Z,98200.75
2024-04-07T05:24:02.516Z,98205.50
2024-04-07T05:26:30.282Z,98214.39
2024-04-07T05:28:57.883Z,98215.20
2024-04-07T05:31:25.505Z,98219.34
2024-04-07T05:33:54.199Z,98221.23
2024-04-07T05:36:21.881Z,98223.98
2024-04-07T05:38:50.286Z,98224.02
2024-04-07T05:41:17.831Z,98224.11
2024-04-07T05:43:45.632Z,98224.88
2024-04-07T05:46:13.225Z,98225.17
2024-04-07T05:48:40.854Z,98222.84
2024-04-07T05:51:15.378Z,98227.35
2024-04-07T05:53:43.666Z,98229.75
2024-04-07T05:56:12.660Z,98231.09
2024-04-07T05:58:41.705Z,98234.11
2024-04-07T06:01:10.220Z,98233.31
2024-04-07T06:04:09.252Z,98237.16
2024-04-07T06:06:36.886Z,98237.23
2024-04-07T06:09:04.984Z,98242.62
2024-04-07T06:11:32.580Z,98243.35
2024-04-07T06:14:00.449Z,98240.67
2024-04-07T06:16:28.136Z,98244.55
2024-04-07T06:18:55.872Z,98239.22
2024-04-07T06:21:28.494Z,98240.50
2024-04-07T06:23:56.184Z,98243.45
2024-04-07T06:26:23.900Z,98243.77
2024-04-07T06:28:51.649Z,98245.54
2024-04-07T06:31:19.265Z,98246.34
2024-04-07T06:33:47.014Z,98247.86
2024-04-07T06:36:14.809Z,98246.89
2024-04-07T06:38:42.554Z,98242.58
2024-04-07T06:41:10.290Z,98241.10
2024-04-07T06:43:39.140Z,98246.61
2024-04-07T06:46:07.998Z,98244.67
2024-04-07T06:48:35.862Z,98242.56
2024-04-07T06:51:03.669Z,98244.48
2024-04-07T06:53:31.405Z,98247.86
2024-04-07T06:55:59.063Z,98251.70
2024-04-07T06:58:26.680Z,98258.18
2024-04-07T07:00:54.407Z,98260.60
2024-04-07T07:03:22.042Z,98263.17
2024-04-07T07:05:50.588Z,98265.00
2024-04-07T07:08:19.563Z,98265.05
2024-04-07T07:11:00.811Z,98262.87
2024-04-07T07:13:34.070Z,98263.38
2024-04-07T07:16:01.962Z,98265.52
2024-04-07T07:18:29.641Z,98263.77
2024-04-07T07:20:57.222Z,98263.52
2024-04-07T07:23:27.864Z,98263.95
2024-04-07T07:25:55.712Z,98265.25
2024-04-07T07:28:23.381Z,98265.21
2024-04-07T07:30:51.071Z,98268.88
2024-04-07T07:33:18.666Z,98273.58
2024-04-07T07:35:46.412Z,98276.02
2024-04-07T07:38:14.363Z,98276.94
2024-04-07T07:40:44.124Z,98273.84
2024-04-07T07:43:13.295Z,98278.95
2024-04-07T07:45:41.618Z,98278.09
2024-04-07T07:48:16.766Z,98283.39
2024-04-07T07:50:52.310Z,98282.13
2024-04-07T07:53:20.792Z,98272.48
2024-04-07T07:55:59.816Z,98274.14
2024-04-07T07:58:28.449Z,98274.58
2024-04-07T08:01:00.505Z,98283.63
2024-04-07T08:03:28.673Z,98291.73
2024-04-07T08:05:57.997Z,98290.69
2024-04-07T08:08:25.837Z,98290.30
2024-04-07T08:10:54.565Z,98291.84
2024-04-07T08:13:22.835Z,98294.94
2024-04-07T08:15:51.354Z,98283.55
2024-04-07T08:18:19.806Z,98287.79
2024-04-07T08:20:47.671Z,98282.11
2024-04-07T08:23:19.651Z,98282.39
2024-04-07T08:25:47.499Z,98275.55
2024-04-07T08:28:22.727Z,98286.84
2024-04-07T08:30:54.126Z,98286.63
2024-04-07T08:33:22.035Z,98283.98
2024-04-07T08:35:52.585Z,98282.80
2024-04-07T08:38:21.684Z,98286.57
2024-04-07T08:40:50.564Z,98286.16
2024-04-07T08:43:20.471Z,98281.00
2024-04-07T08:45:50.948Z,98282.42
2024-04-07T08:48:20.063Z,98284.67
2024-04-07T08:50:48.920Z,98285.45
2024-04-07T08:53:18.310Z,98281.21
2024-04-07T08:55:50.047Z,98278.82
2024-04-07T08:58:19.950Z,98274.86
2024-04-07T09:00:54.307Z,98275.63
2024-04-07T09:03:22.282Z,98272.79
2024-04-07T09:05:50.221Z,98269.14
2024-04-07T09:08:18.088Z,98270.64
2024-04-07T09:10:45.962Z,98273.15
2024-04-07T09:13:13.715Z,98266.80
2024-04-07T09:15:42.127Z,98267.20
2024-04-07T09:18:12.561Z,98262.64
2024-04-07T09:20:41.276Z,98261.19
2024-04-07T09:23:13.890Z,98257.39
2024-04-07T09:25:49.143Z,98243.05
2024-04-07T09:28:18.414Z,98255.35
2024-04-07T09:30:46.785Z,98248.56
2024-04-07T09:33:14.867Z,98245.70
2024-04-07T09:35:44.094Z,98239.88
2024-04-07T09:38:12.578Z,98240.15
2024-04-07T09:40:50.151Z,98226.38
2024-04-07T09:43:22.370Z,98231.95
2024-04-07T09:45:56.080Z,98229.61
2024-04-07T09:48:31.754Z,98228.36
2024-04-07T09:51:06.583Z,98225.48
2024-04-07T09:54:20.082Z,98227.95
2024-04-07T09:56:48.882Z,98225.47
2024-04-07T09:59:16.962Z,98221.14
2024-04-07T10:01:45.124Z,98215.55
2024-04-07T10:04:13.446Z,98213.05
2024-04-07T10:06:41.447Z,98208.23
2024-04-07T10:09:10.944Z,98216.04
2024-04-07T10:11:48.565Z,98210.37
2024-04-07T10:14:16.825Z,98207.21
2024-04-07T10:16:52.276Z,98209.46
2024-04-07T10:19:27.730Z,98204.86
2024-04-07T10:21:55.817Z,98203.23
2024-04-07T10:24:24.409Z,98204.39
2024-04-07T10:27:00.896Z,98200.11
2024-04-07T10:29:31.816Z,98200.37
2024-04-07T10:32:02.448Z,98199.59
2024-04-07T10:34:30.345Z,98201.96
2024-04-07T10:36:59.348Z,98196.47
2024-04-07T10:39:28.959Z,98193.67
2024-04-07T10:41:58.350Z,98193.02
2024-04-07T10:44:27.850Z,98190.56
2024-04-07T10:46:56.169Z,98190.27
2024-04-07T10:49:25.321Z,98187.73
2024-04-07T10:51:53.495Z,98188.11
2024-04-07T10:54:22.436Z,98186.05
2024-04-07T10:56:52.521Z,98186.61
2024-04-07T10:59:20.220Z,98183.67
2024-04-07T11:01:51.542Z,98186.20
2024-04-07T11:08:55.670Z,98186.52
2024-04-07T11:11:24.491Z,98192.86
2024-04-07T11:13:58.382Z,98194.00
2024-04-07T11:16:26.497Z,98200.34
2024-04-07T11:18:57.506Z,98198.66
2024-04-07T11:21:27.884Z,98194.27
2024-04-07T11:23:55.799Z,98196.69
2024-04-07T11:26:30.480Z,98191.98
2024-04-07T11:28:59.476Z,98185.98
2024-04-07T11:31:27.322Z,98190.44
2024-04-07T11:33:54.913Z,98186.17
2024-04-07T11:36:22.614Z,98187.91
2024-04-07T11:38:50.711Z,98187.98
2024-04-07T11:41:18.383Z,98180.11
2024-04-07T11:43:45.940Z,98177.93
2024-04-07T11:46:13.645Z,98175.84
2024-04-07T11:48:41.333Z,98169.63
2024-04-07T11:51:09.701Z,98174.23
2024-04-07T11:53:37.362Z,98167.27
2024-04-07T11:56:05.702Z,98162.91
2024-04-07T11:58:35.071Z,98161.48
2024-04-07T12:01:03.088Z,98156.50
2024-04-07T12:03:31.266Z,98151.58
2024-04-07T12:06:02.590Z,98154.14
2024-04-07T12:08:30.213Z,98158.01
2024-04-07T12:10:58.026Z,98153.92
2024-04-07T12:13:25.679Z,98152.70
2024-04-07T12:15:53.458Z,98151.46
2024-04-07T12:18:23.176Z,98148.66
2024-04-07T12:20:54.084Z,98148.98
2024-04-07T12:23:22.380Z,98148.96
2024-04-07T12:25:53.621Z,98144.41
2024-04-07T12:28:21.740Z,98141.33
2024-04-07T12:30:51.618Z,98147.04
2024-04-07T12:33:22.450Z,98144.50
2024-04-07T12:35:50.689Z,98142.84
2024-04-07T12:38:21.602Z,98137.95
2024-04-07T12:40:49.315Z,98141.04
2024-04-07T12:43:18.043Z,98133.41
2024-04-07T12:45:45.925Z,98133.08
2024-04-07T12:48:21.126Z,98126.74
2024-04-07T12:50:48.834Z,98124.19
2024-04-07T12:53:16.652Z,98120.92
2024-04-07T12:55:44.397Z,98113.95
2024-04-07T12:58:12.165Z,98111.61
2024-04-07T13:00:40.155Z,98105.20
2024-04-07T13:03:07.811Z,98104.80
2024-04-07T13:05:37.605Z,98103.96
2024-04-07T13:08:05.539Z,98106.68
2024-04-07T13:10:33.658Z,98109.02
2024-04-07T13:13:01.206Z,98105.44
2024-04-07T13:15:28.820Z,98099.88
2024-04-07T13:17:56.655Z,98095.94
2024-04-07T13:20:24.253Z,98093.33
2024-04-07T13:22:52.060Z,98092.63
2024-04-07T13:25:19.814Z,98091.00
2024-04-07T13:27:47.418Z,98090.85
2024-04-07T13:30:15.502Z,98091.41
2024-04-07T13:32:43.092Z,98085.27
2024-04-07T13:35:11.893Z,98086.02
2024-04-07T13:37:39.923Z,98086.90
2024-04-07T13:40:07.813Z,98088.19
2024-04-07T13:42:35.512Z,98086.79
2024-04-07T13:45:04.545Z,98085.60
2024-04-07T13:47:32.232Z,98087.02
2024-04-07T13:50:00.372Z,98089.10
2024-04-07T13:52:27.971Z,98087.85
2024-04-07T13:54:59.302Z,98089.47
2024-04-07T13:57:26.946Z,98083.80
2024-04-07T13:59:55.680Z,98082.15
2024-04-07T14:02:23.241Z,98079.77
2024-04-07T14:04:51.052Z,98081.52
2024-04-07T14:07:18.696Z,98080.14
2024-04-07T14:09:46.328Z,98074.09
2024-04-07T14:12:13.888Z,98073.73
2024-04-07T14:14:41.510Z,98075.58
2024-04-07T14:17:10.448Z,98080.48
2024-04-07T14:19:40.813Z,98075.33
2024-04-07T14:22:08.579Z,98074.13
2024-04-07T14:24:36.851Z,98073.00
2024-04-07T14:27:08.078Z,98079.79
2024-04-07T14:29:35.656Z,98081.25
2024-04-07T14:32:05.338Z,98076.00
2024-04-07T14:34:33.720Z,98073.66
2024-04-07T14:37:02.275Z,98075.59
2024-04-07T14:39:30.155Z,98077.11
2024-04-07T14:41:57.826Z,98079.77
2024-04-07T14:44:25.388Z,98076.85
2024-04-07T14:46:53.754Z,98073.65
2024-04-07T14:49:22.343Z,98076.73
2024-04-07T14:51:49.897Z,98082.68
2024-04-07T14:54:17.799Z,98076.27
2024-04-07T14:56:45.347Z,98073.84
2024-04-07T14:59:12.991Z,98070.15
2024-04-07T15:01:40.700Z,98064.67
2024-04-07T15:04:08.306Z,98062.40
2024-04-07T15:06:35.853Z,98062.33
2024-04-07T15:09:03.818Z,98060.41
2024-04-07T15:11:31.408Z,98059.52
2024-04-07T15:13:58.973Z,98055.88
2024-04-07T15:16:26.602Z,98055.42
2024-04-07T15:18:54.267Z,98058.42
2024-04-07T15:21:21.839Z,98058.54
2024-04-07T15:23:49.513Z,98059.11
2024-04-07T15:26:17.220Z,98053.98
2024-04-07T15:28:45.810Z,98051.59
2024-04-07T15:31:14.516Z,98051.71
2024-04-07T15:33:42.053Z,98049.14
2024-04-07T15:36:10.070Z,98055.23
2024-04-07T15:38:37.744Z,98050.67
2024-04-07T15:41:05.390Z,98053.32
2024-04-07T15:43:40.536Z,98050.42
2024-04-07T15:46:08.777Z,98051.93
2024-04-07T15:48:36.621Z,98052.26
2024-04-07T15:51:04.499Z,98051.64
2024-04-07T15:53:32.882Z,98052.46
2024-04-07T15:56:00.554Z,98053.73
2024-04-07T15:58:28.832Z,98052.79
2024-04-07T16:00:56.431Z,98050.52
2024-04-07T16:03:27.708Z,98047.02
2024-04-07T16:05:55.369Z,98048.73
2024-04-07T16:08:22.904Z,98050.42
2024-04-07T16:10:50.691Z,98048.15
2024-04-07T16:13:18.759Z,98050.19
2024-04-07T16:15:46.526Z,98049.46
2024-04-07T16:18:14.270Z,98047.30
2024-04-07T16:20:42.700Z,98046.35
2024-04-07T16:23:10.399Z,98044.92
2024-04-07T16:25:38.075Z,98042.57
2024-04-07T16:28:05.773Z,98039.66
2024-04-07T16:30:33.486Z,98035.84
2024-04-07T16:33:01.168Z,98038.72
2024-04-07T16:35:28.815Z,98039.75
2024-04-07T16:37:56.576Z,98044.44
2024-04-07T16:40:24.209Z,98047.88
2024-04-07T16:42:52.318Z,98044.33
2024-04-07T16:45:20.024Z,98047.55
2024-04-07T16:47:48.179Z,98046.34
2024-04-07T16:50:16.045Z,98046.92
2024-04-07T16:52:43.827Z,98041.52
2024-04-07T16:55:11.862Z,98037.98
2024-04-07T16:57:39.580Z,98036.30
2024-04-07T17:00:07.896Z,98035.73
2024-04-07T17:02:35.563Z,98040.11
2024-04-07T17:05:03.398Z,98045.98
2024-04-07T17:07:31.137Z,98041.32
2024-04-07T17:09:58.805Z,98047.30
2024-04-07T17:12:26.632Z,98050.40
2024-04-07T17:14:54.414Z,98056.85
2024-04-07T17:17:22.902Z,98058.60
2024-04-07T17:19:50.844Z,98066.50
2024-04-07T17:22:18.808Z,98066.89
2024-04-07T17:24:46.543Z,98070.42
2024-04-07T17:27:14.277Z,98069.66
2024-04-07T17:29:41.977Z,98069.67
2024-04-07T17:32:09.924Z,98079.27
2024-04-07T17:34:40.702Z,98075.75
2024-04-07T17:37:09.005Z,98075.38
2024-04-07T17:39:36.888Z,98078.70
2024-04-07T17:42:05.197Z,98079.27
2024-04-07T17:44:35.928Z,98085.08
2024-04-07T17:47:03.762Z,98080.90
2024-04-07T17:49:31.723Z,98080.94
2024-04-07T17:51:59.620Z,98084.64
2024-04-07T17:54:27.388Z,98083.45
2024-04-07T17:56:55.072Z,98086.97
2024-04-07T17:59:23.821Z,98091.05
2024-04-07T18:01:59.133Z,98096.27
2024-04-07T18:04:27.402Z,98094.23
2024-04-07T18:06:55.407Z,98093.30
2024-04-07T18:09:23.109Z,98090.30
2024-04-07T18:11:51.019Z,98094.50
2024-04-07T18:14:19.183Z,98096.59
2024-04-07T18:16:47.068Z,98095.44
2024-04-07T18:19:14.672Z,98094.46
2024-04-07T18:21:43.915Z,98097.21
2024-04-07T18:24:12.191Z,98100.30
2024-04-07T18:26:39.868Z,98100.38
2024-04-07T18:29:09.121Z,98096.95
2024-04-07T18:31:36.780Z,98098.99
2024-04-07T18:34:04.499Z,98098.34
2024-04-07T18:36:32.140Z,98097.28
2024-04-07T18:38:59.809Z,98096.05
2024-04-07T18:41:27.570Z,98095.13
2024-04-07T18:43:55.625Z,98096.98
2024-04-07T18:46:30.672Z,98100.11
2024-04-07T18:49:01.398Z,98103.38
2024-04-07T18:51:30.173Z,98109.75
2024-04-07T18:53:57.813Z,98108.20
2024-04-07T18:56:25.947Z,98105.52
2024-04-07T18:58:53.569Z,98111.42
2024-04-07T19:01:22.004Z,98112.80
2024-04-07T19:03:49.612Z,98120.14
2024-04-07T19:06:17.776Z,98119.14
2024-04-07T19:08:46.535Z,98119.91
2024-04-07T19:11:14.120Z,98113.24
2024-04-07T19:13:43.807Z,98114.77
2024-04-07T19:16:11.654Z,98119.02
2024-04-07T19:18:40.781Z,98121.45
2024-04-07T19:21:09.959Z,98125.34
2024-04-07T19:23:39.066Z,98127.10
2024-04-07T19:26:10.009Z,98124.24
2024-04-07T19:28:39.690Z,98130.04
2024-04-07T19:31:13.545Z,98133.25
2024-04-07T19:33:41.738Z,98125.60
2024-04-07T19:36:11.428Z,98123.56
2024-04-07T19:38:39.292Z,98120.96
2024-04-07T19:41:06.907Z,98125.65
2024-04-07T19:43:34.629Z,98116.46
2024-04-07T19:46:02.739Z,98118.45
2024-04-07T19:48:30.949Z,98116.33
2024-04-07T19:51:01.525Z,98112.73
2024-04-07T19:53:29.359Z,98111.68
2024-04-07T19:55:57.050Z,98113.36
2024-04-07T19:58:24.579Z,98112.89
2024-04-07T20:00:54.951Z,98114.02
2024-04-07T20:03:25.826Z,98110.61
2024-04-07T20:05:54.476Z,98103.46
2024-04-07T20:08:22.127Z,98102.69
2024-04-07T20:10:51.695Z,98100.89
2024-04-07T20:13:20.321Z,98104.62
2024-04-07T20:15:50.156Z,98104.52
2024-04-07T20:18:20.571Z,98103.60
2024-04-07T20:20:49.153Z,98104.45
2024-04-07T20:23:17.232Z,98102.95
2024-04-07T20:25:44.848Z,98099.85
2024-04-07T20:28:14.204Z,98102.42
2024-04-07T20:30:41.857Z,98101.16
2024-04-07T20:33:10.393Z,98104.94
2024-04-07T20:35:38.057Z,98105.77
2024-04-07T20:38:06.880Z,98105.88
2024-04-07T20:40:35.740Z,98106.72
2024-04-07T20:43:03.439Z,98104.59
2024-04-07T20:45:31.205Z,98104.51
2024-04-07T20:47:58.827Z,98099.98
2024-04-07T20:50:30.129Z,98098.84
2024-04-07T20:52:58.021Z,98097.58
2024-04-07T20:55:25.642Z,98095.25
2024-04-07T20:57:53.359Z,98090.05
2024-04-07T21:00:30.293Z,98094.98
2024-04-07T21:03:05.133Z,98096.38
2024-04-07T21:05:33.004Z,98096.16
2024-04-07T21:08:00.597Z,98092.73
2024-04-07T21:10:28.418Z,98094.50
2024-04-07T21:12:56.991Z,98098.52
2024-04-07T21:15:24.582Z,98099.59
2024-04-07T21:17:52.233Z,98103.84
2024-04-07T21:20:22.079Z,98105.05
2024-04-07T21:22:49.832Z,98106.19
2024-04-07T21:25:18.286Z,98104.27
2024-04-07T21:27:45.887Z,98108.05
2024-04-07T21:30:15.686Z,98112.17
2024-04-07T21:32:43.367Z,98111.42
2024-04-07T21:35:11.315Z,98111.80
2024-04-07T21:37:41.682Z,98105.88
2024-04-07T21:40:11.247Z,98107.27
2024-04-07T21:42:38.909Z,98108.43
2024-04-07T21:45:07.277Z,98105.38
2024-04-07T21:47:34.925Z,98101.31
2024-04-07T21:50:02.682Z,98099.07
2024-04-07T21:52:30.270Z,98098.81
2024-04-07T21:54:57.876Z,98098.63
2024-04-07T21:57:25.455Z,98099.30
2024-04-07T21:59:53.108Z,98097.92
2024-04-07T22:02:20.725Z,98090.63
2024-04-07T22:04:48.536Z,98085.77
2024-04-07T22:07:16.180Z,98083.27
2024-04-07T22:09:43.887Z,98085.96
2024-04-07T22:12:11.984Z,98087.29
2024-04-07T22:14:39.521Z,98083.27
2024-04-07T22:17:07.154Z,98084.89
2024-04-07T22:19:34.898Z,98085.98
2024-04-07T22:22:04.310Z,98081.07
2024-04-07T22:24:33.319Z,98083.17
2024-04-07T22:27:00.940Z,98085.39
2024-04-07T22:29:28.773Z,98088.21
2024-04-07T22:31:56.392Z,98090.84
2024-04-07T22:34:23.946Z,98090.27
2024-04-07T22:36:51.739Z,98090.22
2024-04-07T22:39:19.885Z,98089.30
2024-04-07T22:41:47.809Z,98089.53
2024-04-07T22:44:15.697Z,98086.73
2024-04-07T22:46:43.430Z,98085.17
2024-04-07T22:49:13.357Z,98081.77
2024-04-07T22:51:40.970Z,98085.88
2024-04-07T22:54:08.523Z,98086.77
2024-04-07T22:56:36.731Z,98086.75
2024-04-07T22:59:04.456Z,98084.40
2024-04-07T23:01:32.505Z,98077.39
2024-04-07T23:04:00.175Z,98077.59
2024-04-07T23:06:27.855Z,98077.95
2024-04-07T23:08:55.592Z,98077.57
2024-04-07T23:11:24.841Z,98073.09
2024-04-07T23:13:52.462Z,98074.91
2024-04-07T23:16:20.054Z,98072.05
2024-04-07T23:18:47.779Z,98074.38
2024-04-07T23:21:16.507Z,98072.27
2024-04-07T23:23:44.618Z,98071.55
2024-04-07T23:26:12.316Z,98067.59
2024-04-07T23:28:42.469Z,98066.54
2024-04-07T23:31:13.185Z,98070.94
2024-04-07T23:33:42.673Z,98070.39
2024-04-07T23:36:10.272Z,98068.46
2024-04-07T23:38:37.905Z,98061.39
2024-04-07T23:41:06.134Z,98060.62
2024-04-07T23:43:33.752Z,98061.24
2024-04-07T23:46:01.994Z,98060.52
2024-04-07T23:48:29.601Z,98062.96
2024-04-07T23:50:57.633Z,98062.90
2024-04-07T23:53:25.281Z,98066.56
2024-04-07T23:55:54.066Z,98064.76
2024-04-07T23:58:21.678Z,98062.09
